createdAt,value
2019-01-29T00:01:18.168Z,77.60
2019-01-29T00:03:48.756Z,77.90
2019-01-29T00:06:19.714Z,78.60
2019-01-29T00:08:51.158Z,78.20
2019-01-29T00:11:22.259Z,78.60
2019-01-29T00:13:53.122Z,78.50
2019-01-29T00:16:23.993Z,78.70
2019-01-29T00:18:54.431Z,78.90
2019-01-29T00:21:25.083Z,78.50
2019-01-29T00:23:55.453Z,78.20
2019-01-29T00:26:26.142Z,77.80
2019-01-29T00:28:56.475Z,78.80
2019-01-29T00:31:27.181Z,77.50
2019-01-29T00:33:58.429Z,76.90
2019-01-29T00:36:28.971Z,77.40
2019-01-29T00:38:59.504Z,77.60
2019-01-29T00:41:29.830Z,77.30
2019-01-29T00:44:00.377Z,76.90
2019-01-29T00:46:30.915Z,77.30
2019-01-29T00:49:04.361Z,76.10
2019-01-29T00:51:34.617Z,75.80
2019-01-29T00:54:05.293Z,75.40
2019-01-29T00:56:35.608Z,75.60
2019-01-29T00:59:06.070Z,75.80
2019-01-29T01:01:37.690Z,76.10
2019-01-29T01:04:09.982Z,75.20
2019-01-29T01:06:40.637Z,75.60
2019-01-29T01:09:17.910Z,75.20
2019-01-29T01:11:48.401Z,74.50
2019-01-29T01:14:19.389Z,74.50
2019-01-29T01:16:51.201Z,74.90
2019-01-29T01:19:24.108Z,75.10
2019-01-29T01:21:54.981Z,75.90
2019-01-29T01:24:26.029Z,75.10
2019-01-29T01:26:57.191Z,74.80
2019-01-29T01:29:30.114Z,74.80
2019-01-29T01:32:01.178Z,75.10
2019-01-29T01:34:34.830Z,74.80
2019-01-29T01:37:06.967Z,74.80
2019-01-29T01:39:39.155Z,74.20
2019-01-29T01:42:09.678Z,74.70
2019-01-29T01:44:40.203Z,73.70
2019-01-29T01:47:10.415Z,75.10
2019-01-29T01:49:41.237Z,75.00
2019-01-29T01:52:11.340Z,75.00
2019-01-29T01:54:42.031Z,75.50
2019-01-29T01:57:12.103Z,74.90
2019-01-29T01:59:42.666Z,75.00
2019-01-29T02:02:12.829Z,74.90
2019-01-29T02:04:44.596Z,75.10
2019-01-29T02:07:14.751Z,75.10
2019-01-29T02:09:44.888Z,75.10
2019-01-29T02:12:15.111Z,75.20
2019-01-29T02:14:45.819Z,75.10
2019-01-29T02:17:16.388Z,75.10
2019-01-29T02:19:46.706Z,75.20
2019-01-29T02:22:17.308Z,74.90
2019-01-29T02:24:48.214Z,74.90
2019-01-29T02:27:18.576Z,75.60
2019-01-29T02:29:49.019Z,75.40
2019-01-29T02:32:19.576Z,75.10
2019-01-29T02:34:49.717Z,75.00
2019-01-29T02:37:19.898Z,75.40
2019-01-29T02:39:50.017Z,75.10
2019-01-29T02:42:20.039Z,75.00
2019-01-29T02:44:50.154Z,75.70
2019-01-29T02:47:20.289Z,75.40
2019-01-29T02:49:50.904Z,75.20
2019-01-29T02:52:21.142Z,75.00
2019-01-29T02:54:51.601Z,75.10
2019-01-29T02:57:21.911Z,75.30
2019-01-29T02:59:52.453Z,75.30
2019-01-29T03:02:22.640Z,75.80
2019-01-29T03:04:53.615Z,76.00
2019-01-29T03:07:24.044Z,76.20
2019-01-29T03:09:54.235Z,75.90
2019-01-29T03:12:24.371Z,76.70
2019-01-29T03:14:56.194Z,76.40
2019-01-29T03:17:26.247Z,76.30
2019-01-29T03:19:57.915Z,76.40
2019-01-29T03:22:28.022Z,76.40
2019-01-29T03:24:58.229Z,76.60
2019-01-29T03:27:28.346Z,77.30
2019-01-29T03:29:59.070Z,77.20
2019-01-29T03:32:29.231Z,77.10
2019-01-29T03:34:59.499Z,77.50
2019-01-29T03:37:29.797Z,77.70
2019-01-29T03:40:00.007Z,77.70
2019-01-29T03:42:30.569Z,77.60
2019-01-29T03:45:01.028Z,77.40
2019-01-29T03:47:31.314Z,77.30
2019-01-29T03:50:01.663Z,77.90
2019-01-29T03:52:32.550Z,77.70
2019-01-29T03:55:03.046Z,77.20
2019-01-29T03:57:33.198Z,77.70
2019-01-29T04:00:03.681Z,77.60
2019-01-29T04:02:34.105Z,77.50
2019-01-29T04:05:04.714Z,77.60
2019-01-29T04:07:35.311Z,77.80
2019-01-29T04:10:06.698Z,78.20
2019-01-29T04:12:36.948Z,78.50
2019-01-29T04:15:10.212Z,78.70
2019-01-29T04:17:40.867Z,79.00
2019-01-29T04:20:14.206Z,79.10
2019-01-29T04:22:45.836Z,79.10
2019-01-29T04:25:16.270Z,78.80
2019-01-29T04:27:46.477Z,78.20
2019-01-29T04:30:18.666Z,78.30
2019-01-29T04:32:49.056Z,78.00
2019-01-29T04:35:19.902Z,78.10
2019-01-29T04:37:50.201Z,78.40
2019-01-29T04:40:20.778Z,78.50
2019-01-29T04:42:50.976Z,77.60
2019-01-29T04:45:21.379Z,77.10
2019-01-29T04:47:51.470Z,76.30
2019-01-29T04:50:22.687Z,76.30
2019-01-29T04:52:52.866Z,76.70
2019-01-29T04:55:23.192Z,76.90
2019-01-29T04:57:53.318Z,76.90
2019-01-29T05:00:27.729Z,76.00
2019-01-29T05:02:57.867Z,76.50
2019-01-29T05:05:28.085Z,75.00
2019-01-29T05:10:28.658Z,75.00
2019-01-29T05:12:58.912Z,75.90
2019-01-29T05:15:29.440Z,74.90
2019-01-29T05:17:59.660Z,75.10
2019-01-29T05:20:30.112Z,75.50
2019-01-29T05:23:02.729Z,75.40
2019-01-29T05:25:33.403Z,74.80
2019-01-29T05:30:33.805Z,74.90
2019-01-29T05:33:04.056Z,75.10
2019-01-29T05:35:34.297Z,75.00
2019-01-29T05:38:04.892Z,74.40
2019-01-29T05:40:35.090Z,74.10
2019-01-29T05:43:05.704Z,74.20
2019-01-29T05:45:35.952Z,74.70
2019-01-29T05:50:36.136Z,73.70
2019-01-29T05:55:35.865Z,73.80
2019-01-29T06:00:38.970Z,73.80
2019-01-29T06:03:09.212Z,74.40
2019-01-29T06:05:39.976Z,75.00
2019-01-29T06:08:10.306Z,73.90
2019-01-29T06:10:41.059Z,74.20
2019-01-29T06:13:12.352Z,74.50
2019-01-29T06:15:42.902Z,74.50
2019-01-29T06:18:13.263Z,73.60
2019-01-29T06:20:44.353Z,73.50
2019-01-29T06:23:14.584Z,73.90
2019-01-29T06:25:45.473Z,73.50
2019-01-29T06:28:15.933Z,73.30
2019-01-29T06:30:46.455Z,73.90
2019-01-29T06:33:17.324Z,74.10
2019-01-29T06:35:48.040Z,74.20
2019-01-29T06:38:18.855Z,74.70
2019-01-29T06:40:49.926Z,74.40
2019-01-29T06:43:21.716Z,74.10
2019-01-29T06:45:52.095Z,74.10
2019-01-29T06:48:23.542Z,74.90
2019-01-29T06:50:53.871Z,74.50
2019-01-29T06:53:24.484Z,75.10
2019-01-29T06:58:25.458Z,73.60
2019-01-29T07:00:55.692Z,74.40
2019-01-29T07:03:26.344Z,74.20
2019-01-29T07:05:56.586Z,74.50
2019-01-29T07:08:26.854Z,74.80
2019-01-29T07:13:26.564Z,73.10
2019-01-29T07:16:05.947Z,73.40
2019-01-29T07:18:49.277Z,73.30
2019-01-29T07:21:19.493Z,72.20
2019-01-29T07:23:49.673Z,71.90
2019-01-29T07:28:51.556Z,72.00
2019-01-29T07:31:22.051Z,72.50
2019-01-29T07:33:52.438Z,72.40
2019-01-29T07:36:22.866Z,72.20
2019-01-29T07:38:56.152Z,71.60
2019-01-29T07:41:31.738Z,72.00
2019-01-29T07:44:02.516Z,70.30
2019-01-29T07:46:33.104Z,70.30
2019-01-29T07:49:03.324Z,70.70
2019-01-29T07:51:34.027Z,69.70
2019-01-29T07:54:07.009Z,70.50
2019-01-29T07:56:37.543Z,69.50
2019-01-29T07:59:08.188Z,70.10
2019-01-29T08:01:38.600Z,71.40
2019-01-29T08:04:08.836Z,70.80
2019-01-29T08:06:39.327Z,68.70
2019-01-29T08:09:11.146Z,67.20
2019-01-29T08:11:41.437Z,65.90
2019-01-29T08:14:11.723Z,68.80
2019-01-29T08:16:41.942Z,66.00
2019-01-29T08:19:12.752Z,64.60
2019-01-29T08:21:43.033Z,65.00
2019-01-29T08:24:13.610Z,66.20
2019-01-29T08:26:43.885Z,66.60
2019-01-29T08:29:14.178Z,67.90
2019-01-29T08:34:15.787Z,66.70
2019-01-29T08:36:46.285Z,67.70
2019-01-29T08:39:16.793Z,67.20
2019-01-29T08:41:48.096Z,66.90
2019-01-29T08:44:18.583Z,66.20
2019-01-29T08:46:49.476Z,66.20
2019-01-29T08:49:20.008Z,66.30
2019-01-29T08:51:50.610Z,66.20
2019-01-29T08:59:19.993Z,66.90
2019-01-29T09:01:50.260Z,66.50
2019-01-29T09:04:20.620Z,65.50
2019-01-29T09:06:53.425Z,65.90
2019-01-29T09:09:23.741Z,65.80
2019-01-29T09:11:54.028Z,66.80
2019-01-29T09:14:24.577Z,66.00
2019-01-29T09:16:54.723Z,66.40
2019-01-29T09:19:24.928Z,65.10
2019-01-29T09:21:56.526Z,65.70
2019-01-29T09:24:26.755Z,64.90
2019-01-29T09:26:56.945Z,64.70
2019-01-29T09:29:27.086Z,64.90
2019-01-29T09:31:57.251Z,65.30
2019-01-29T09:34:27.315Z,65.10
2019-01-29T09:36:58.205Z,65.50
2019-01-29T09:39:28.591Z,64.80
2019-01-29T09:41:58.792Z,62.60
2019-01-29T09:44:29.102Z,63.10
2019-01-29T09:46:59.404Z,62.70
2019-01-29T09:49:31.160Z,61.10
2019-01-29T09:52:02.416Z,59.90
2019-01-29T09:54:32.679Z,60.40
2019-01-29T09:57:02.980Z,59.20
2019-01-29T09:59:33.186Z,59.50
2019-01-29T10:02:03.443Z,59.00
2019-01-29T10:04:33.663Z,58.70
2019-01-29T10:07:03.864Z,60.00
2019-01-29T10:09:35.228Z,59.10
2019-01-29T10:12:05.683Z,59.10
2019-01-29T10:14:40.374Z,59.40
2019-01-29T10:17:13.463Z,59.70
2019-01-29T10:19:44.101Z,57.90
2019-01-29T10:22:44.192Z,57.80
2019-01-29T10:25:21.829Z,57.60
2019-01-29T10:27:53.062Z,56.50
2019-01-29T10:30:25.134Z,57.90
2019-01-29T10:32:57.132Z,57.50
2019-01-29T10:38:08.197Z,56.90
2019-01-29T10:40:38.406Z,57.10
2019-01-29T10:43:08.685Z,56.70
2019-01-29T10:45:41.807Z,56.40
2019-01-29T10:48:12.125Z,56.10
2019-01-29T10:50:42.389Z,56.40
2019-01-29T10:53:12.625Z,56.90
2019-01-29T10:55:47.346Z,57.40
2019-01-29T11:00:44.726Z,57.10
2019-01-29T11:03:15.325Z,56.10
2019-01-29T11:05:45.899Z,56.90
2019-01-29T11:10:46.625Z,55.60
2019-01-29T11:13:17.439Z,55.90
2019-01-29T11:15:49.140Z,56.20
2019-01-29T11:18:19.895Z,55.10
2019-01-29T11:20:50.164Z,54.90
2019-01-29T11:23:20.946Z,54.60
2019-01-29T11:25:56.128Z,53.00
2019-01-29T11:28:23.578Z,53.40
2019-01-29T11:30:54.027Z,53.50
2019-01-29T11:33:25.444Z,54.20
2019-01-29T11:35:56.172Z,53.00
2019-01-29T11:38:26.678Z,53.50
2019-01-29T11:40:57.218Z,52.50
2019-01-29T11:43:29.421Z,52.60
2019-01-29T11:46:03.199Z,52.20
2019-01-29T11:48:35.046Z,52.50
2019-01-29T11:51:05.696Z,52.10
2019-01-29T11:53:38.717Z,52.50
2019-01-29T11:56:09.942Z,52.10
2019-01-29T11:58:40.318Z,52.60
2019-01-29T12:01:14.959Z,51.00
2019-01-29T12:03:49.059Z,51.50
2019-01-29T12:06:19.468Z,51.10
2019-01-29T12:08:51.508Z,50.90
2019-01-29T12:11:21.889Z,50.50
2019-01-29T12:13:52.197Z,50.90
2019-01-29T12:16:23.445Z,51.20
2019-01-29T12:18:54.108Z,50.60
2019-01-29T12:21:24.623Z,51.40
2019-01-29T12:23:55.012Z,49.70
2019-01-29T12:26:25.266Z,50.20
2019-01-29T12:28:55.563Z,49.90
2019-01-29T12:31:26.168Z,50.60
2019-01-29T12:33:56.833Z,51.00
2019-01-29T12:36:27.057Z,51.20
2019-01-29T12:39:09.506Z,48.00
2019-01-29T12:41:39.885Z,49.80
2019-01-29T12:44:10.199Z,50.40
2019-01-29T12:46:40.758Z,48.90
2019-01-29T12:49:11.167Z,48.40
2019-01-29T12:51:49.348Z,49.40
2019-01-29T12:54:20.389Z,49.80
2019-01-29T12:56:51.158Z,52.00
2019-01-29T12:59:21.425Z,52.30
2019-01-29T13:01:52.123Z,50.60
2019-01-29T13:04:22.591Z,50.60
2019-01-29T13:06:53.092Z,51.10
2019-01-29T13:09:26.176Z,49.80
2019-01-29T13:11:56.501Z,51.10
2019-01-29T13:14:26.963Z,50.50
2019-01-29T13:16:57.320Z,49.00
2019-01-29T13:19:30.033Z,47.70
2019-01-29T13:22:00.396Z,47.30
2019-01-29T13:24:31.201Z,48.00
2019-01-29T13:27:01.660Z,46.90
2019-01-29T13:29:35.082Z,47.30
2019-01-29T13:32:07.926Z,47.00
2019-01-29T13:34:38.466Z,46.70
2019-01-29T13:37:09.971Z,46.80
2019-01-29T13:39:40.789Z,47.20
2019-01-29T13:42:12.667Z,49.40
2019-01-29T13:47:12.679Z,48.70
2019-01-29T13:49:43.230Z,48.10
2019-01-29T13:52:14.570Z,49.50
2019-01-29T13:54:45.751Z,49.70
2019-01-29T13:57:16.066Z,50.00
2019-01-29T13:59:46.478Z,49.30
2019-01-29T14:02:16.822Z,48.20
2019-01-29T14:04:48.485Z,49.30
2019-01-29T14:07:19.992Z,49.70
2019-01-29T14:09:50.755Z,50.10
2019-01-29T14:12:21.066Z,49.50
2019-01-29T14:14:52.724Z,49.50
2019-01-29T14:17:22.985Z,49.40
2019-01-29T14:19:55.768Z,49.90
2019-01-29T14:22:26.269Z,50.10
2019-01-29T14:24:56.553Z,49.30
2019-01-29T14:27:27.901Z,49.20
2019-01-29T14:29:58.791Z,50.00
2019-01-29T14:32:30.410Z,50.20
2019-01-29T14:35:04.349Z,49.60
2019-01-29T14:38:04.022Z,50.00
2019-01-29T14:40:36.497Z,50.70
2019-01-29T14:43:08.644Z,51.10
2019-01-29T14:45:39.065Z,50.10
2019-01-29T14:48:09.377Z,49.90
2019-01-29T14:50:39.986Z,49.90
2019-01-29T14:53:11.683Z,50.00
2019-01-29T14:55:42.542Z,50.30
2019-01-29T14:58:22.191Z,50.40
2019-01-29T15:00:53.622Z,49.60
2019-01-29T15:03:26.695Z,50.20
2019-01-29T15:05:56.959Z,49.50
2019-01-29T15:08:29.688Z,49.50
2019-01-29T15:11:01.816Z,49.90
2019-01-29T15:13:32.038Z,50.20
2019-01-29T15:16:27.437Z,50.50
2019-01-29T15:19:02.874Z,50.90
2019-01-29T15:21:37.886Z,50.70
2019-01-29T15:24:05.509Z,50.90
2019-01-29T15:29:08.084Z,50.30
2019-01-29T15:34:10.069Z,50.00
2019-01-29T15:36:40.580Z,49.90
2019-01-29T15:39:10.860Z,50.10
2019-01-29T15:41:41.091Z,49.90
2019-01-29T15:44:11.490Z,50.20
2019-01-29T15:46:41.879Z,50.80
2019-01-29T15:49:12.602Z,50.90
2019-01-29T15:54:12.358Z,50.50
2019-01-29T15:56:42.682Z,50.60
2019-01-29T15:59:13.091Z,50.40
2019-01-29T16:01:43.869Z,50.50
2019-01-29T16:06:43.837Z,50.80
2019-01-29T16:09:14.542Z,51.20
2019-01-29T16:11:44.898Z,51.90
2019-01-29T16:14:15.329Z,52.30
2019-01-29T16:16:46.308Z,53.20
2019-01-29T16:19:16.504Z,53.20
2019-01-29T16:21:48.414Z,53.50
2019-01-29T16:26:53.144Z,53.20
2019-01-29T16:29:23.831Z,54.40
2019-01-29T16:31:54.196Z,54.40
2019-01-29T16:34:47.398Z,54.60
2019-01-29T16:37:26.452Z,55.00
2019-01-29T16:40:03.427Z,55.10
2019-01-29T16:42:37.157Z,57.70
2019-01-29T16:45:08.570Z,54.20
2019-01-29T16:47:38.927Z,55.70
2019-01-29T16:50:10.472Z,56.20
2019-01-29T16:52:41.119Z,56.70
2019-01-29T16:55:16.019Z,56.60
2019-01-29T16:57:48.839Z,56.70
2019-01-29T17:00:29.913Z,56.80
2019-01-29T17:03:01.555Z,57.40
2019-01-29T17:05:32.293Z,57.20
2019-01-29T17:08:03.231Z,57.90
2019-01-29T17:10:33.552Z,58.10
2019-01-29T17:13:05.158Z,58.40
2019-01-29T17:15:35.450Z,58.80
2019-01-29T17:18:06.437Z,58.80
2019-01-29T17:20:38.902Z,59.10
2019-01-29T17:25:40.559Z,59.00
2019-01-29T17:28:11.913Z,59.40
2019-01-29T17:30:46.829Z,59.50
2019-01-29T17:33:18.513Z,59.90
2019-01-29T17:35:48.819Z,60.40
2019-01-29T17:38:19.405Z,60.30
2019-01-29T17:40:49.867Z,60.40
2019-01-29T17:43:22.115Z,60.50
2019-01-29T17:45:52.314Z,61.00
2019-01-29T17:48:22.799Z,61.00
2019-01-29T17:50:53.092Z,61.30
2019-01-29T17:53:23.915Z,61.90
2019-01-29T17:55:55.209Z,61.30
2019-01-29T17:58:25.994Z,61.90
2019-01-29T18:00:59.740Z,62.60
2019-01-29T18:03:30.167Z,62.50
2019-01-29T18:06:00.771Z,63.00
2019-01-29T18:08:31.082Z,63.20
2019-01-29T18:11:02.388Z,64.80
2019-01-29T18:13:32.786Z,64.20
2019-01-29T18:16:03.422Z,63.90
2019-01-29T18:18:33.605Z,63.90
2019-01-29T18:21:04.181Z,63.90
2019-01-29T18:23:34.412Z,63.70
2019-01-29T18:26:04.767Z,63.80
2019-01-29T18:28:34.899Z,63.70
2019-01-29T18:31:05.275Z,64.20
2019-01-29T18:33:36.080Z,63.80
2019-01-29T18:36:07.778Z,64.10
2019-01-29T18:38:38.085Z,65.30
2019-01-29T18:41:08.381Z,64.60
2019-01-29T18:43:39.606Z,64.80
2019-01-29T18:46:09.921Z,64.70
2019-01-29T18:48:40.692Z,65.50
2019-01-29T18:51:14.218Z,64.90
2019-01-29T18:53:44.745Z,65.30
2019-01-29T18:56:16.033Z,65.40
2019-01-29T18:58:46.293Z,65.70
2019-01-29T19:01:17.442Z,66.50
2019-01-29T19:03:49.960Z,65.90
2019-01-29T19:06:20.555Z,66.30
2019-01-29T19:08:50.623Z,66.50
2019-01-29T19:11:21.603Z,67.70
2019-01-29T19:13:51.814Z,66.30
2019-01-29T19:16:22.710Z,66.20
2019-01-29T19:18:53.136Z,66.60
2019-01-29T19:21:26.155Z,67.20
2019-01-29T19:23:56.356Z,66.90
2019-01-29T19:26:26.808Z,66.10
2019-01-29T19:28:57.108Z,67.00
2019-01-29T19:31:27.308Z,67.40
2019-01-29T19:33:57.675Z,66.80
2019-01-29T19:36:27.963Z,67.00
2019-01-29T19:38:58.274Z,67.40
2019-01-29T19:41:28.472Z,67.40
2019-01-29T19:43:58.705Z,68.10
2019-01-29T19:46:28.952Z,67.70
2019-01-29T19:48:59.206Z,66.90
2019-01-29T19:51:29.775Z,68.30
2019-01-29T19:54:00.081Z,67.40
2019-01-29T19:56:30.539Z,67.50
2019-01-29T19:59:00.824Z,66.80
2019-01-29T20:01:31.403Z,68.10
2019-01-29T20:04:01.812Z,67.80
2019-01-29T20:09:04.332Z,67.60
2019-01-29T20:16:35.686Z,68.50
2019-01-29T20:21:35.871Z,68.50
2019-01-29T20:24:06.447Z,68.80
2019-01-29T20:26:37.390Z,68.60
2019-01-29T20:29:07.689Z,68.80
2019-01-29T20:31:38.082Z,68.80
2019-01-29T20:34:08.454Z,68.80
2019-01-29T20:39:11.718Z,69.00
2019-01-29T20:41:42.466Z,69.50
2019-01-29T20:44:14.108Z,69.40
2019-01-29T20:46:44.546Z,69.60
2019-01-29T20:49:14.972Z,70.20
2019-01-29T20:51:45.175Z,70.40
2019-01-29T20:54:16.630Z,70.10
2019-01-29T20:56:46.856Z,69.60
2019-01-29T20:59:20.326Z,70.00
2019-01-29T21:01:50.571Z,69.10
2019-01-29T21:04:22.103Z,69.70
2019-01-29T21:06:52.948Z,69.40
2019-01-29T21:09:23.571Z,68.30
2019-01-29T21:11:55.269Z,69.00
2019-01-29T21:14:28.041Z,68.70
2019-01-29T21:16:58.889Z,69.00
2019-01-29T21:19:30.339Z,69.30
2019-01-29T21:22:00.790Z,69.30
2019-01-29T21:24:31.594Z,69.70
2019-01-29T21:27:01.815Z,69.90
2019-01-29T21:29:32.744Z,70.00
2019-01-29T21:32:03.243Z,70.20
2019-01-29T21:34:34.209Z,70.20
2019-01-29T21:37:04.552Z,70.10
2019-01-29T21:39:35.994Z,70.60
2019-01-29T21:42:06.333Z,70.00
2019-01-29T21:47:08.067Z,70.20
2019-01-29T21:49:38.496Z,71.20
2019-01-29T21:52:09.137Z,70.60
2019-01-29T21:54:39.802Z,70.90
2019-01-29T21:57:11.012Z,70.90
2019-01-29T21:59:41.852Z,71.30
2019-01-29T22:04:42.483Z,71.50
2019-01-29T22:07:12.833Z,71.40
2019-01-29T22:09:43.953Z,72.10
2019-01-29T22:12:14.509Z,72.20
2019-01-29T22:14:45.159Z,71.80
2019-01-29T22:17:15.567Z,71.90
2019-01-29T22:19:46.103Z,71.20
2019-01-29T22:22:16.325Z,71.10
2019-01-29T22:24:47.161Z,71.70
2019-01-29T22:27:17.603Z,71.50
2019-01-29T22:29:48.191Z,71.50
2019-01-29T22:32:18.406Z,71.50
2019-01-29T22:34:49.036Z,71.50
2019-01-29T22:37:19.312Z,71.60
2019-01-29T22:39:50.108Z,71.30
2019-01-29T22:42:20.451Z,71.70
2019-01-29T22:44:50.793Z,71.90
2019-01-29T22:47:21.043Z,71.60
2019-01-29T22:52:20.795Z,71.80
2019-01-29T22:54:51.057Z,72.30
2019-01-29T22:57:21.255Z,72.10
2019-01-29T22:59:51.849Z,72.50
2019-01-29T23:02:22.185Z,72.10
2019-01-29T23:04:52.722Z,71.60
2019-01-29T23:07:29.002Z,72.10
2019-01-29T23:09:59.205Z,71.90
2019-01-29T23:12:32.942Z,71.80
2019-01-29T23:15:06.004Z,71.50
2019-01-29T23:17:36.360Z,71.00
2019-01-29T23:20:08.177Z,70.40
2019-01-29T23:22:38.403Z,70.80
2019-01-29T23:25:09.475Z,70.20
2019-01-29T23:27:39.764Z,70.60
2019-01-29T23:30:14.799Z,70.40
2019-01-29T23:32:44.993Z,70.10
2019-01-29T23:35:15.407Z,69.60
2019-01-29T23:37:45.670Z,69.30
2019-01-29T23:40:16.261Z,69.30
2019-01-29T23:42:46.933Z,68.10
2019-01-29T23:45:19.011Z,68.50
2019-01-29T23:48:00.651Z,68.30
2019-01-29T23:50:31.852Z,68.20
2019-01-29T23:53:02.165Z,68.20
2019-01-29T23:55:32.489Z,68.10
2019-01-29T23:58:02.788Z,67.70
